createdAt,value
2023-12-11T00:00:26.951Z,10.80
2023-12-11T00:02:53.962Z,10.70
2023-12-11T00:05:20.984Z,10.70
2023-12-11T00:07:48.196Z,10.80
2023-12-11T00:10:15.974Z,10.80
2023-12-11T00:12:43.117Z,10.70
2023-12-11T00:15:11.878Z,10.70
2023-12-11T00:17:39.327Z,10.70
2023-12-11T00:20:07.298Z,10.70
2023-12-11T00:22:34.453Z,10.70
2023-12-11T00:25:02.762Z,10.60
2023-12-11T00:27:30.185Z,10.60
2023-12-11T00:29:59.063Z,10.70
2023-12-11T00:32:26.354Z,10.60
2023-12-11T00:34:53.474Z,10.60
2023-12-11T00:37:20.820Z,10.50
2023-12-11T00:39:47.923Z,10.50
2023-12-11T00:42:14.874Z,10.40
2023-12-11T00:44:41.960Z,10.40
2023-12-11T00:47:09.008Z,10.40
2023-12-11T00:49:36.065Z,10.40
2023-12-11T00:52:03.235Z,10.40
2023-12-11T00:54:30.570Z,10.40
2023-12-11T00:56:57.577Z,10.50
2023-12-11T00:59:24.739Z,10.50
2023-12-11T01:01:51.798Z,10.50
2023-12-11T01:04:18.797Z,10.70
2023-12-11T01:06:45.783Z,10.60
2023-12-11T01:09:14.033Z,10.60
2023-12-11T01:11:41.513Z,10.60
2023-12-11T01:14:08.595Z,10.60
2023-12-11T01:16:35.609Z,10.70
2023-12-11T01:19:03.991Z,10.70
2023-12-11T01:21:31.287Z,10.60
2023-12-11T01:23:58.543Z,10.70
2023-12-11T01:26:25.881Z,10.60
2023-12-11T01:28:52.983Z,10.70
2023-12-11T01:31:20.117Z,10.70
2023-12-11T01:33:47.569Z,10.70
2023-12-11T01:36:15.669Z,10.70
2023-12-11T01:38:42.820Z,10.70
2023-12-11T01:41:09.828Z,10.70
2023-12-11T01:43:36.827Z,10.70
2023-12-11T01:46:12.327Z,10.60
2023-12-11T01:48:39.871Z,10.60
2023-12-11T01:51:09.380Z,10.70
2023-12-11T01:53:36.779Z,10.70
2023-12-11T01:56:04.237Z,10.70
2023-12-11T01:58:31.892Z,10.70
2023-12-11T02:00:59.824Z,10.70
2023-12-11T02:03:27.329Z,10.70
2023-12-11T02:05:54.744Z,10.70
2023-12-11T02:08:22.291Z,10.70
2023-12-11T02:10:49.966Z,10.70
2023-12-11T02:13:17.157Z,10.60
2023-12-11T02:15:46.249Z,10.60
2023-12-11T02:18:15.493Z,10.60
2023-12-11T02:20:43.261Z,10.60
2023-12-11T02:23:28.443Z,10.70
2023-12-11T02:26:14.023Z,10.70
2023-12-11T02:28:41.163Z,10.70
2023-12-11T02:31:08.411Z,10.70
2023-12-11T02:33:35.663Z,10.70
2023-12-11T02:36:03.705Z,10.80
2023-12-11T02:38:31.095Z,10.70
2023-12-11T02:40:58.445Z,10.70
2023-12-11T02:43:25.312Z,10.80
2023-12-11T02:45:52.457Z,10.70
2023-12-11T02:48:20.692Z,10.70
2023-12-11T02:50:47.875Z,10.70
2023-12-11T02:53:14.931Z,10.80
2023-12-11T02:55:41.822Z,10.80
2023-12-11T02:58:09.085Z,10.90
2023-12-11T03:00:37.243Z,10.80
2023-12-11T03:03:05.005Z,10.80
2023-12-11T03:05:32.556Z,10.80
2023-12-11T03:07:59.617Z,10.80
2023-12-11T03:10:26.619Z,10.80
2023-12-11T03:12:53.688Z,10.80
2023-12-11T03:15:20.753Z,10.70
2023-12-11T03:17:48.443Z,10.70
2023-12-11T03:20:16.097Z,10.70
2023-12-11T03:22:43.382Z,10.70
2023-12-11T03:25:11.042Z,10.70
2023-12-11T03:27:38.459Z,10.70
2023-12-11T03:30:06.029Z,10.60
2023-12-11T03:32:33.796Z,10.70
2023-12-11T03:35:00.844Z,10.70
2023-12-11T03:37:27.945Z,10.70
2023-12-11T03:39:55.315Z,10.60
2023-12-11T03:42:22.666Z,10.60
2023-12-11T03:44:49.920Z,10.60
2023-12-11T03:47:16.908Z,10.60
2023-12-11T03:49:43.965Z,10.50
2023-12-11T03:52:10.917Z,10.60
2023-12-11T03:54:38.216Z,10.50
2023-12-11T03:57:05.798Z,10.50
2023-12-11T03:59:33.715Z,10.50
2023-12-11T04:02:01.061Z,10.50
2023-12-11T04:04:28.453Z,10.40
2023-12-11T04:06:55.639Z,10.30
2023-12-11T04:09:22.765Z,10.40
2023-12-11T04:11:49.795Z,10.30
2023-12-11T04:14:16.961Z,10.40
2023-12-11T04:16:44.314Z,10.30
2023-12-11T04:19:14.443Z,10.30
2023-12-11T04:21:42.116Z,10.20
2023-12-11T04:24:11.905Z,10.20
2023-12-11T04:26:40.244Z,10.20
2023-12-11T04:29:07.326Z,10.20
2023-12-11T04:31:34.278Z,10.20
2023-12-11T04:34:02.290Z,10.20
2023-12-11T04:36:29.697Z,10.30
2023-12-11T04:38:56.708Z,10.30
2023-12-11T04:41:23.754Z,10.30
2023-12-11T04:43:50.849Z,10.30
2023-12-11T04:46:17.907Z,10.30
2023-12-11T04:48:45.040Z,10.30
2023-12-11T04:51:12.491Z,10.30
2023-12-11T04:53:39.457Z,10.30
2023-12-11T04:56:07.879Z,10.20
2023-12-11T04:58:35.256Z,10.20
2023-12-11T05:01:02.203Z,10.20
2023-12-11T05:03:29.276Z,10.30
2023-12-11T05:05:56.590Z,10.40
2023-12-11T05:08:25.297Z,10.40
2023-12-11T05:10:53.796Z,10.40
2023-12-11T05:13:20.768Z,10.40
2023-12-11T05:15:47.913Z,10.40
2023-12-11T05:18:15.241Z,10.50
2023-12-11T05:20:42.278Z,10.40
2023-12-11T05:23:09.474Z,10.50
2023-12-11T05:25:36.805Z,10.40
2023-12-11T05:28:05.333Z,10.40
2023-12-11T05:30:32.448Z,10.50
2023-12-11T05:33:00.908Z,10.50
2023-12-11T05:35:28.336Z,10.60
2023-12-11T05:37:59.819Z,10.60
2023-12-11T05:40:27.478Z,10.60
2023-12-11T05:42:54.733Z,10.70
2023-12-11T05:45:21.801Z,10.70
2023-12-11T05:47:49.125Z,10.80
2023-12-11T05:50:16.467Z,10.80
2023-12-11T05:52:43.909Z,10.90
2023-12-11T05:55:11.507Z,11.00
2023-12-11T05:57:38.761Z,11.00
2023-12-11T06:00:06.942Z,11.00
2023-12-11T06:02:33.918Z,11.10
2023-12-11T06:05:01.013Z,11.10
2023-12-11T06:07:28.266Z,11.00
2023-12-11T06:09:55.528Z,10.90
2023-12-11T06:12:22.655Z,10.80
2023-12-11T06:14:49.968Z,10.70
2023-12-11T06:17:17.591Z,10.70
2023-12-11T06:19:45.279Z,10.60
2023-12-11T06:22:12.981Z,10.60
2023-12-11T06:24:41.300Z,10.50
2023-12-11T06:27:09.203Z,10.40
2023-12-11T06:29:37.092Z,10.40
2023-12-11T06:32:04.696Z,10.40
2023-12-11T06:34:32.098Z,10.30
2023-12-11T06:36:59.517Z,10.30
2023-12-11T06:39:28.212Z,10.30
2023-12-11T06:41:55.493Z,10.20
2023-12-11T06:44:24.170Z,10.20
2023-12-11T06:46:51.036Z,10.20
2023-12-11T06:49:18.253Z,10.10
2023-12-11T06:51:45.707Z,10.10
2023-12-11T06:54:12.753Z,10.10
2023-12-11T06:56:40.882Z,10.10
2023-12-11T06:59:08.480Z,10.10
2023-12-11T07:01:36.890Z,10.10
2023-12-11T07:04:05.171Z,10.10
2023-12-11T07:06:32.666Z,10.10
2023-12-11T07:09:00.082Z,10.00
2023-12-11T07:11:27.082Z,10.00
2023-12-11T07:13:55.122Z,10.10
2023-12-11T07:16:24.699Z,10.10
2023-12-11T07:18:52.749Z,10.30
2023-12-11T07:21:20.364Z,10.30
2023-12-11T07:23:49.565Z,10.30
2023-12-11T07:26:17.271Z,10.30
2023-12-11T07:28:44.612Z,10.40
2023-12-11T07:31:11.638Z,10.50
2023-12-11T07:33:38.933Z,10.50
2023-12-11T07:36:07.257Z,10.60
2023-12-11T07:38:34.464Z,10.60
2023-12-11T07:41:03.659Z,10.60
2023-12-11T07:43:32.531Z,10.70
2023-12-11T07:46:01.157Z,10.80
2023-12-11T07:48:29.789Z,10.80
2023-12-11T07:50:57.630Z,10.80
2023-12-11T07:53:24.914Z,10.80
2023-12-11T07:55:52.290Z,10.90
2023-12-11T07:58:19.516Z,10.90
2023-12-11T08:00:46.719Z,10.90
2023-12-11T08:03:13.833Z,10.80
2023-12-11T08:05:41.032Z,10.90
2023-12-11T08:08:08.999Z,10.90
2023-12-11T08:10:37.293Z,11.00
2023-12-11T08:13:04.635Z,11.10
2023-12-11T08:15:31.730Z,11.10
2023-12-11T08:17:59.167Z,11.00
2023-12-11T08:20:26.465Z,11.10
2023-12-11T08:22:53.501Z,11.00
2023-12-11T08:25:20.783Z,11.10
2023-12-11T08:27:48.074Z,11.10
2023-12-11T08:30:15.045Z,11.10
2023-12-11T08:32:42.174Z,11.10
2023-12-11T08:35:10.204Z,11.10
2023-12-11T08:37:38.241Z,11.10
2023-12-11T08:40:07.204Z,11.10
2023-12-11T08:42:40.961Z,11.10
2023-12-11T08:45:10.135Z,11.10
2023-12-11T08:47:39.786Z,11.10
2023-12-11T08:50:08.900Z,11.10
2023-12-11T08:52:38.383Z,11.10
2023-12-11T08:55:07.181Z,11.20
2023-12-11T08:57:35.308Z,11.30
2023-12-11T09:00:03.007Z,11.40
2023-12-11T09:02:30.228Z,11.30
2023-12-11T09:04:57.593Z,11.30
2023-12-11T09:07:24.666Z,11.30
2023-12-11T09:09:51.691Z,11.40
2023-12-11T09:12:28.191Z,11.40
2023-12-11T09:15:01.532Z,11.30
2023-12-11T09:17:30.144Z,11.30
2023-12-11T09:19:58.093Z,11.30
2023-12-11T09:22:26.299Z,11.30
2023-12-11T09:24:53.708Z,11.30
2023-12-11T09:27:20.880Z,11.30
2023-12-11T09:29:51.129Z,11.30
2023-12-11T09:32:18.603Z,11.40
2023-12-11T09:34:47.463Z,11.30
2023-12-11T09:37:17.128Z,11.40
2023-12-11T09:39:44.549Z,11.40
2023-12-11T09:42:13.057Z,11.40
2023-12-11T09:44:47.846Z,11.50
2023-12-11T09:47:30.696Z,11.50
2023-12-11T09:50:01.434Z,11.50
2023-12-11T09:52:29.567Z,11.60
2023-12-11T09:54:56.678Z,11.60
2023-12-11T09:57:25.521Z,11.60
2023-12-11T09:59:53.267Z,11.80
2023-12-11T10:02:20.649Z,11.80
2023-12-11T10:05:11.024Z,11.80
2023-12-11T10:07:41.840Z,11.90
2023-12-11T10:10:20.043Z,11.90
2023-12-11T10:12:48.079Z,11.90
2023-12-11T10:15:26.314Z,11.80
2023-12-11T10:18:04.871Z,11.80
2023-12-11T10:20:37.016Z,11.80
2023-12-11T10:23:19.983Z,11.80
2023-12-11T10:25:49.562Z,11.90
2023-12-11T10:28:19.658Z,12.00
2023-12-11T10:31:00.846Z,12.00
2023-12-11T10:33:32.362Z,12.10
2023-12-11T10:36:14.167Z,12.10
2023-12-11T10:38:42.579Z,12.20
2023-12-11T10:41:24.284Z,12.10
2023-12-11T10:44:02.651Z,12.10
2023-12-11T10:46:39.457Z,12.10
2023-12-11T10:49:07.064Z,12.20
2023-12-11T10:51:35.983Z,12.30
2023-12-11T10:54:02.945Z,12.40
2023-12-11T10:56:30.418Z,12.30
2023-12-11T10:58:59.332Z,12.50
2023-12-11T11:01:27.765Z,12.50
2023-12-11T11:03:55.099Z,12.60
2023-12-11T11:06:23.452Z,12.60
2023-12-11T11:09:05.384Z,12.60
2023-12-11T11:11:39.233Z,12.50
2023-12-11T11:14:40.249Z,12.50
2023-12-11T11:17:08.064Z,12.60
2023-12-11T11:19:36.646Z,12.70
2023-12-11T11:22:08.182Z,12.70
2023-12-11T11:24:36.504Z,12.70
2023-12-11T11:27:04.331Z,12.80
2023-12-11T11:29:41.926Z,12.90
2023-12-11T11:32:10.420Z,12.80
2023-12-11T11:34:45.137Z,13.00
2023-12-11T11:37:39.378Z,13.20
2023-12-11T11:40:08.972Z,13.60
2023-12-11T11:42:36.995Z,13.70
2023-12-11T11:45:09.379Z,13.90
2023-12-11T11:47:37.347Z,14.10
2023-12-11T11:50:11.160Z,14.10
2023-12-11T11:52:43.460Z,14.20
2023-12-11T11:55:22.143Z,14.40
2023-12-11T11:57:49.232Z,15.00
2023-12-11T12:00:26.746Z,15.20
2023-12-11T12:03:02.160Z,15.60
2023-12-11T12:05:29.638Z,15.70
2023-12-11T12:07:57.837Z,15.50
2023-12-11T12:10:25.497Z,15.40
2023-12-11T12:13:01.576Z,15.00
2023-12-11T12:15:29.514Z,14.90
2023-12-11T12:18:09.725Z,14.70
2023-12-11T12:20:37.171Z,14.40
2023-12-11T12:23:07.049Z,14.20
2023-12-11T12:25:35.952Z,14.20
2023-12-11T12:28:09.068Z,14.60
2023-12-11T12:30:36.402Z,14.60
2023-12-11T12:33:06.208Z,14.70
2023-12-11T12:35:35.852Z,14.70
2023-12-11T12:38:03.482Z,14.50
2023-12-11T12:40:39.485Z,14.40
2023-12-11T12:43:13.878Z,14.40
2023-12-11T12:45:42.757Z,14.50
2023-12-11T12:48:11.588Z,14.40
2023-12-11T12:50:39.169Z,14.40
2023-12-11T12:53:15.205Z,14.30
2023-12-11T12:55:43.250Z,14.20
2023-12-11T12:58:14.751Z,14.30
2023-12-11T13:00:44.204Z,14.40
2023-12-11T13:03:11.734Z,14.20
2023-12-11T13:05:42.331Z,14.00
2023-12-11T13:08:09.895Z,13.80
2023-12-11T13:10:38.732Z,13.60
2023-12-11T13:13:13.535Z,13.60
2023-12-11T13:15:41.816Z,13.70
2023-12-11T13:18:16.432Z,13.60
2023-12-11T13:20:44.479Z,13.50
2023-12-11T13:23:11.701Z,13.50
2023-12-11T13:25:39.044Z,13.50
2023-12-11T13:28:06.219Z,13.60
2023-12-11T13:30:33.505Z,13.60
2023-12-11T13:33:00.809Z,13.50
2023-12-11T13:35:28.145Z,13.40
2023-12-11T13:37:55.108Z,13.40
2023-12-11T13:40:23.877Z,13.40
2023-12-11T13:42:52.636Z,13.30
2023-12-11T13:45:20.182Z,13.20
2023-12-11T13:47:47.529Z,13.20
2023-12-11T13:50:14.741Z,13.00
2023-12-11T13:52:42.093Z,13.00
2023-12-11T13:55:09.818Z,13.00
2023-12-11T13:57:36.920Z,12.90
2023-12-11T14:00:04.357Z,12.90
2023-12-11T14:02:59.066Z,12.80
2023-12-11T14:05:18.724Z,12.70
2023-12-11T14:07:46.195Z,12.50
2023-12-11T14:10:13.693Z,12.50
2023-12-11T14:12:41.442Z,12.50
2023-12-11T14:15:09.384Z,12.60
2023-12-11T14:17:37.511Z,12.70
2023-12-11T14:20:05.532Z,12.90
2023-12-11T14:22:34.822Z,12.90
2023-12-11T14:25:04.459Z,13.00
2023-12-11T14:27:32.310Z,12.90
2023-12-11T14:29:59.816Z,12.90
2023-12-11T14:32:27.249Z,13.20
2023-12-11T14:34:54.867Z,13.30
2023-12-11T14:37:22.664Z,13.30
2023-12-11T14:39:50.966Z,13.20
2023-12-11T14:42:20.676Z,13.00
2023-12-11T14:44:47.858Z,12.90
2023-12-11T14:47:17.140Z,12.90
2023-12-11T14:49:44.178Z,12.90
2023-12-11T14:52:13.109Z,12.70
2023-12-11T14:54:40.499Z,12.60
2023-12-11T14:57:07.887Z,12.60
2023-12-11T14:59:34.896Z,12.50
2023-12-11T15:02:02.627Z,12.50
2023-12-11T15:04:29.978Z,12.30
2023-12-11T15:06:57.513Z,12.20
2023-12-11T15:09:25.586Z,12.20
2023-12-11T15:11:52.637Z,12.10
2023-12-11T15:14:19.944Z,12.10
2023-12-11T15:16:47.584Z,12.10
2023-12-11T15:19:14.728Z,12.10
2023-12-11T15:21:42.150Z,12.10
2023-12-11T15:24:09.516Z,12.10
2023-12-11T15:26:36.577Z,12.10
2023-12-11T15:29:07.292Z,12.10
2023-12-11T15:31:35.065Z,12.10
2023-12-11T15:34:02.427Z,11.90
2023-12-11T15:36:29.658Z,11.80
2023-12-11T15:38:56.707Z,11.80
2023-12-11T15:41:23.850Z,11.80
2023-12-11T15:43:51.197Z,11.80
2023-12-11T15:46:18.388Z,12.00
2023-12-11T15:48:47.707Z,12.00
2023-12-11T15:51:16.687Z,12.00
2023-12-11T15:53:46.011Z,11.90
2023-12-11T15:56:16.679Z,11.80
2023-12-11T15:58:44.757Z,11.70
2023-12-11T16:01:12.279Z,11.60
2023-12-11T16:03:40.108Z,11.70
2023-12-11T16:06:08.800Z,11.70
2023-12-11T16:08:36.132Z,11.80
2023-12-11T16:11:03.726Z,11.80
2023-12-11T16:13:31.782Z,11.70
2023-12-11T16:15:59.473Z,11.70
2023-12-11T16:18:26.718Z,11.70
2023-12-11T16:20:54.665Z,11.80
2023-12-11T16:23:21.793Z,11.80
2023-12-11T16:25:56.355Z,11.70
2023-12-11T16:28:29.591Z,11.80
2023-12-11T16:30:56.762Z,11.70
2023-12-11T16:33:25.250Z,11.70
2023-12-11T16:35:52.750Z,11.70
2023-12-11T16:38:19.688Z,11.70
2023-12-11T16:40:46.767Z,11.60
2023-12-11T16:43:13.866Z,11.40
2023-12-11T16:45:44.840Z,11.40
2023-12-11T16:48:12.640Z,11.50
2023-12-11T16:50:41.040Z,11.60
2023-12-11T16:53:08.077Z,11.70
2023-12-11T16:55:35.248Z,11.60
2023-12-11T16:58:02.483Z,11.60
2023-12-11T17:00:29.373Z,11.50
2023-12-11T17:02:57.321Z,11.50
2023-12-11T17:05:24.668Z,11.50
2023-12-11T17:07:54.808Z,11.60
2023-12-11T17:10:22.172Z,11.60
2023-12-11T17:12:50.263Z,11.60
2023-12-11T17:15:17.195Z,11.60
2023-12-11T17:17:44.414Z,11.50
2023-12-11T17:20:12.251Z,11.60
2023-12-11T17:22:39.392Z,11.60
2023-12-11T17:25:07.033Z,11.50
2023-12-11T17:27:34.635Z,11.40
2023-12-11T17:30:03.878Z,11.30
2023-12-11T17:32:32.644Z,11.30
2023-12-11T17:35:00.467Z,11.30
2023-12-11T17:37:27.871Z,11.30
2023-12-11T17:39:56.846Z,11.30
2023-12-11T17:42:26.538Z,11.30
2023-12-11T17:44:54.049Z,11.30
2023-12-11T17:47:21.205Z,11.30
2023-12-11T17:49:49.169Z,11.40
2023-12-11T17:52:16.652Z,11.30
2023-12-11T17:54:43.731Z,11.40
2023-12-11T17:57:11.073Z,11.40
2023-12-11T17:59:37.972Z,11.30
2023-12-11T18:02:05.922Z,11.20
2023-12-11T18:04:33.200Z,11.30
2023-12-11T18:07:00.588Z,11.00
2023-12-11T18:09:28.316Z,11.10
2023-12-11T18:11:55.369Z,11.10
2023-12-11T18:14:24.161Z,11.00
2023-12-11T18:16:51.111Z,11.00
2023-12-11T18:19:18.295Z,11.10
2023-12-11T18:21:46.310Z,11.10
2023-12-11T18:24:13.572Z,11.10
2023-12-11T18:26:40.540Z,11.20
2023-12-11T18:29:07.837Z,11.30
2023-12-11T18:31:35.027Z,11.30
2023-12-11T18:34:02.289Z,11.30
2023-12-11T18:36:29.703Z,11.10
2023-12-11T18:38:56.646Z,11.00
2023-12-11T18:41:24.252Z,11.00
2023-12-11T18:43:51.863Z,11.00
2023-12-11T18:46:22.208Z,11.00
2023-12-11T18:48:49.764Z,10.90
2023-12-11T18:51:31.120Z,10.80
2023-12-11T18:53:58.783Z,10.70
2023-12-11T18:56:26.409Z,10.70
2023-12-11T18:58:54.153Z,10.80
2023-12-11T19:01:22.011Z,10.80
2023-12-11T19:03:49.358Z,10.70
2023-12-11T19:06:16.780Z,10.70
2023-12-11T19:08:44.249Z,10.70
2023-12-11T19:11:14.781Z,10.70
2023-12-11T19:13:42.342Z,10.70
2023-12-11T19:16:10.037Z,10.60
2023-12-11T19:18:37.555Z,10.50
2023-12-11T19:21:04.952Z,10.40
2023-12-11T19:23:32.086Z,10.50
2023-12-11T19:25:59.850Z,10.60
2023-12-11T19:28:27.402Z,10.60
2023-12-11T19:30:54.648Z,10.60
2023-12-11T19:33:22.544Z,10.60
2023-12-11T19:35:50.963Z,10.50
2023-12-11T19:38:18.168Z,10.50
2023-12-11T19:40:45.299Z,10.50
2023-12-11T19:43:13.790Z,10.40
2023-12-11T19:45:40.711Z,10.40
2023-12-11T19:48:08.027Z,10.50
2023-12-11T19:50:35.371Z,10.50
2023-12-11T19:53:02.535Z,10.60
2023-12-11T19:55:29.604Z,10.60
2023-12-11T19:57:57.010Z,10.60
2023-12-11T20:00:23.934Z,10.60
2023-12-11T20:02:51.088Z,10.60
2023-12-11T20:05:18.272Z,10.70
2023-12-11T20:07:45.573Z,10.50
2023-12-11T20:10:15.737Z,10.60
2023-12-11T20:12:42.965Z,10.60
2023-12-11T20:15:12.035Z,10.60
2023-12-11T20:17:40.226Z,10.60
2023-12-11T20:20:10.549Z,10.50
2023-12-11T20:22:37.812Z,10.40
2023-12-11T20:25:05.514Z,10.10
2023-12-11T20:27:32.714Z,10.20
2023-12-11T20:30:00.590Z,10.20
2023-12-11T20:32:27.675Z,10.30
2023-12-11T20:34:55.117Z,10.30
2023-12-11T20:37:23.294Z,10.20
2023-12-11T20:39:50.302Z,10.10
2023-12-11T20:42:18.784Z,10.10
2023-12-11T20:44:45.866Z,9.90
2023-12-11T20:47:14.310Z,10.00
2023-12-11T20:49:41.469Z,10.10
2023-12-11T20:52:08.797Z,10.10
2023-12-11T20:54:35.909Z,10.20
2023-12-11T20:57:03.929Z,10.30
2023-12-11T20:59:31.278Z,10.30
2023-12-11T21:01:58.345Z,10.30
2023-12-11T21:04:26.886Z,10.30
2023-12-11T21:06:57.578Z,10.40
2023-12-11T21:09:24.788Z,10.50
2023-12-11T21:11:51.938Z,10.50
2023-12-11T21:14:20.404Z,10.60
2023-12-11T21:16:47.628Z,10.60
2023-12-11T21:19:15.166Z,10.60
2023-12-11T21:21:42.440Z,10.60
2023-12-11T21:24:10.072Z,10.60
2023-12-11T21:26:37.473Z,10.40
2023-12-11T21:29:04.973Z,10.30
2023-12-11T21:31:32.473Z,10.30
2023-12-11T21:34:00.228Z,10.30
2023-12-11T21:36:31.369Z,10.30
2023-12-11T21:39:01.926Z,10.10
2023-12-11T21:41:29.117Z,10.20
2023-12-11T21:43:57.836Z,10.30
2023-12-11T21:46:28.894Z,10.30
2023-12-11T21:48:58.919Z,10.30
2023-12-11T21:51:28.026Z,10.20
2023-12-11T21:53:54.913Z,10.10
2023-12-11T21:56:24.501Z,10.10
2023-12-11T21:58:53.345Z,10.20
2023-12-11T22:01:20.952Z,10.30
2023-12-11T22:03:48.102Z,10.40
2023-12-11T22:06:15.196Z,10.30
2023-12-11T22:08:42.639Z,10.30
2023-12-11T22:11:16.674Z,10.20
2023-12-11T22:13:47.236Z,10.30
2023-12-11T22:16:15.812Z,10.20
2023-12-11T22:18:43.209Z,10.30
2023-12-11T22:21:10.661Z,10.30
2023-12-11T22:23:37.922Z,10.30
2023-12-11T22:26:05.100Z,10.30
2023-12-11T22:28:33.116Z,10.40
2023-12-11T22:31:00.613Z,10.40
2023-12-11T22:33:27.798Z,10.50
2023-12-11T22:35:54.771Z,10.40
2023-12-11T22:38:21.899Z,10.40
2023-12-11T22:40:48.958Z,10.50
2023-12-11T22:43:16.115Z,10.50
2023-12-11T22:45:43.408Z,10.60
2023-12-11T22:48:10.613Z,10.60
2023-12-11T22:50:38.304Z,10.60
2023-12-11T22:53:05.413Z,10.60
2023-12-11T22:55:32.504Z,10.50
2023-12-11T22:58:09.241Z,10.60
2023-12-11T23:00:41.130Z,10.60
2023-12-11T23:03:08.453Z,10.60
2023-12-11T23:05:35.438Z,10.60
2023-12-11T23:08:02.399Z,10.60
2023-12-11T23:10:29.551Z,10.60
2023-12-11T23:12:56.638Z,10.70
2023-12-11T23:15:24.071Z,10.80
2023-12-11T23:17:51.135Z,10.70
2023-12-11T23:20:18.466Z,10.80
2023-12-11T23:22:45.554Z,10.70
2023-12-11T23:25:13.298Z,10.60
2023-12-11T23:27:41.295Z,10.70
2023-12-11T23:30:09.102Z,10.70
2023-12-11T23:32:36.709Z,10.80
2023-12-11T23:35:04.398Z,10.80
2023-12-11T23:37:32.401Z,10.80
2023-12-11T23:40:00.507Z,10.70
2023-12-11T23:42:28.028Z,10.70
2023-12-11T23:44:55.096Z,10.60
2023-12-11T23:47:22.415Z,10.50
2023-12-11T23:49:49.718Z,10.40
2023-12-11T23:52:17.250Z,10.30
2023-12-11T23:54:44.539Z,10.30
2023-12-11T23:57:11.588Z,10.40
2023-12-11T23:59:38.632Z,10.40
